Time;durP1;ratioP1;P1;durP2;ratioP2;P2;SDS_P1;SDS_P2;PMS_P1;PMS_P2;Temp;Humidity;BMP_temperature;BMP_pressure;BME280_temperature;BME280_humidity;BME280_pressure;Samples;Min_cycle;Max_cycle;Signal;HPM_P1;HPM_P2
2021/12/17 00:06:56;;;;;;;213.20;32.58;;;11.20;99.90;;;;;;5130585;27;20432;-82
2021/12/17 00:09:22;;;;;;;258.65;34.95;;;11.20;99.90;;;;;;5098164;28;20058;-82
2021/12/17 00:11:48;;;;;;;211.85;31.17;;;11.20;99.90;;;;;;5114759;28;20047;-82
2021/12/17 00:14:22;;;;;;;247.88;34.75;;;11.20;99.90;;;;;;5131637;27;20048;-82
2021/12/17 00:16:48;;;;;;;188.65;30.52;;;11.20;99.90;;;;;;5130557;27;20055;-82
2021/12/17 00:49:00;;;;;;;125.63;29.00;;;10.90;99.90;;;;;;5148275;27;20047;-82
2021/12/17 00:52:11;;;;;;;77.28;23.80;;;10.90;99.90;;;;;;5097244;28;20043;-81
2021/12/17 00:54:23;;;;;;;94.78;25.48;;;10.80;99.90;;;;;;5103391;28;20040;-82
2021/12/17 00:56:52;;;;;;;217.32;32.00;;;10.80;99.90;;;;;;5114207;28;20405;-81
2021/12/17 00:59:19;;;;;;;136.57;27.60;;;10.80;99.90;;;;;;5097083;28;20154;-82
2021/12/17 01:01:46;;;;;;;118.28;25.65;;;10.80;99.90;;;;;;5113963;28;20043;-82
2021/12/17 01:04:13;;;;;;;96.65;23.90;;;10.80;99.90;;;;;;5113405;28;20055;-81
2021/12/17 01:06:39;;;;;;;110.82;24.58;;;10.70;99.90;;;;;;5114128;28;20395;-81
2021/12/17 01:09:07;;;;;;;130.98;25.00;;;10.80;99.90;;;;;;5113959;28;20044;-82
2021/12/17 01:11:33;;;;;;;78.47;20.02;;;10.80;99.90;;;;;;5130977;27;20402;-81
2021/12/17 01:13:59;;;;;;;92.35;22.15;;;10.70;99.90;;;;;;5114095;28;20429;-81
2021/12/17 01:16:25;;;;;;;92.85;21.73;;;10.80;99.90;;;;;;5130586;27;20039;-82
2021/12/17 01:21:56;;;;;;;62.80;16.70;;;10.80;99.90;;;;;;5148544;27;20051;-82
2021/12/17 01:35:31;;;;;;;65.32;16.23;;;10.80;99.90;;;;;;5147649;27;20125;-82
2021/12/17 01:43:11;;;;;;;32.03;11.68;;;11.00;99.90;;;;;;5147788;27;20082;-82
2021/12/17 01:45:39;;;;;;;23.48;9.68;;;11.00;99.90;;;;;;5113044;28;20044;-82
2021/12/17 01:48:12;;;;;;;29.88;10.60;;;11.00;99.90;;;;;;5129130;27;20065;-82
2021/12/17 02:01:37;;;;;;;20.40;8.13;;;11.00;99.90;;;;;;5147999;27;20050;-82
2021/12/17 02:04:04;;;;;;;18.90;8.02;;;11.10;99.90;;;;;;5112636;28;20521;-82
2021/12/17 02:06:34;;;;;;;16.58;8.32;;;11.10;99.90;;;;;;5095602;28;20054;-82
2021/12/17 02:09:00;;;;;;;16.70;7.22;;;11.10;99.90;;;;;;5113372;28;20047;-82
2021/12/17 02:12:06;;;;;;;17.83;7.95;;;11.10;99.90;;;;;;5112959;28;20066;-81
2021/12/17 02:19:59;;;;;;;26.60;8.20;;;11.00;99.90;;;;;;5127053;27;20046;-82
2021/12/17 02:32:59;;;;;;;17.10;7.68;;;11.10;99.90;;;;;;5151436;27;20494;-82
2021/12/17 02:35:35;;;;;;;57.78;12.55;;;11.00;99.90;;;;;;5116944;28;20059;-82
2021/12/17 02:38:02;;;;;;;67.75;12.27;;;11.10;99.90;;;;;;5115184;28;20048;-81
2021/12/17 02:45:44;;;;;;;71.88;13.63;;;10.70;99.90;;;;;;5150997;27;20591;-82
2021/12/17 02:48:18;;;;;;;37.72;10.48;;;10.60;99.90;;;;;;5098549;28;20059;-82
2021/12/17 02:50:48;;;;;;;35.47;9.95;;;10.70;99.90;;;;;;5116718;28;20098;-82
2021/12/17 02:53:16;;;;;;;33.88;10.40;;;10.70;99.90;;;;;;5116577;28;20486;-81
2021/12/17 02:55:45;;;;;;;22.58;8.20;;;10.80;99.90;;;;;;5117080;28;20052;-82
2021/12/17 02:58:11;;;;;;;15.40;7.25;;;10.80;99.90;;;;;;5099459;28;20051;-82
2021/12/17 03:00:39;;;;;;;17.70;7.22;;;10.80;99.90;;;;;;5116391;28;20496;-82
2021/12/17 03:03:07;;;;;;;15.75;7.50;;;10.80;99.90;;;;;;5150782;27;20054;-82
2021/12/17 03:05:34;;;;;;;15.63;6.82;;;10.70;99.90;;;;;;5150683;27;20409;-81
2021/12/17 03:08:00;;;;;;;35.25;9.45;;;10.70;99.90;;;;;;5116316;28;20089;-81
2021/12/17 03:10:26;;;;;;;19.80;7.57;;;10.70;99.90;;;;;;5116258;28;20047;-81
2021/12/17 03:13:00;;;;;;;14.30;6.68;;;10.70;99.90;;;;;;5133093;27;20043;-82
2021/12/17 03:23:39;;;;;;;13.52;6.32;;;10.80;99.90;;;;;;5150481;27;20063;-81
2021/12/17 03:26:24;;;;;;;17.67;6.53;;;10.70;99.90;;;;;;5115685;28;20079;-81
2021/12/17 03:28:53;;;;;;;12.05;6.15;;;10.80;99.90;;;;;;5116283;28;20118;-81
2021/12/17 03:31:20;;;;;;;13.73;6.35;;;10.80;99.90;;;;;;5150250;27;20044;-82
2021/12/17 03:33:49;;;;;;;16.17;6.50;;;10.80;99.90;;;;;;5115985;28;20130;-81
2021/12/17 03:36:16;;;;;;;14.27;6.40;;;10.70;99.90;;;;;;5115487;28;20036;-81
2021/12/17 03:38:48;;;;;;;17.27;7.75;;;10.80;99.90;;;;;;5116042;28;20101;-81
2021/12/17 03:43:41;;;;;;;12.98;6.43;;;10.80;99.90;;;;;;5150042;27;20185;-82
2021/12/17 03:46:07;;;;;;;19.05;7.70;;;10.80;99.90;;;;;;5115329;28;20118;-81
2021/12/17 03:48:37;;;;;;;16.42;7.25;;;10.80;99.90;;;;;;5114643;28;20054;-81
2021/12/17 03:51:04;;;;;;;10.85;5.95;;;10.90;99.90;;;;;;5115435;28;20047;-81
2021/12/17 03:53:31;;;;;;;10.80;5.75;;;10.80;99.90;;;;;;5115300;28;20040;-81
2021/12/17 03:55:57;;;;;;;13.57;6.60;;;10.80;99.90;;;;;;5115468;28;20044;-81
2021/12/17 03:58:23;;;;;;;43.90;9.05;;;10.80;99.90;;;;;;5115121;28;20043;-81
2021/12/17 04:00:49;;;;;;;44.72;10.23;;;10.90;99.90;;;;;;5115429;28;20101;-81
2021/12/17 04:03:15;;;;;;;36.05;9.73;;;10.80;99.90;;;;;;5132083;27;20035;-82
2021/12/17 04:05:41;;;;;;;50.08;11.10;;;10.90;99.90;;;;;;5131902;27;20059;-81
2021/12/17 04:08:07;;;;;;;18.73;8.05;;;10.90;99.90;;;;;;5115292;28;20043;-81
2021/12/17 04:10:41;;;;;;;18.75;8.27;;;10.80;99.90;;;;;;5132206;27;20048;-82
2021/12/17 04:13:25;;;;;;;54.17;10.98;;;10.80;99.90;;;;;;5115237;28;20043;-81
2021/12/17 04:15:56;;;;;;;22.08;8.60;;;10.80;99.90;;;;;;5114626;28;20048;-81
2021/12/17 04:18:22;;;;;;;22.63;8.68;;;10.80;99.90;;;;;;5097355;28;20096;-82
2021/12/17 04:20:48;;;;;;;22.60;8.93;;;10.80;99.90;;;;;;5131955;27;20104;-82
2021/12/17 04:23:15;;;;;;;24.60;8.85;;;10.80;99.90;;;;;;5131756;27;20436;-81
2021/12/17 04:25:41;;;;;;;23.42;7.65;;;10.80;99.90;;;;;;5114585;28;20054;-81
2021/12/17 04:28:07;;;;;;;38.47;9.50;;;10.80;99.90;;;;;;5114814;28;20044;-81
2021/12/17 04:30:32;;;;;;;71.75;12.85;;;10.80;99.90;;;;;;5114761;28;20051;-82
2021/12/17 04:32:58;;;;;;;22.58;8.90;;;10.80;99.90;;;;;;5149346;27;20493;-81
2021/12/17 04:35:24;;;;;;;56.65;11.60;;;10.70;99.90;;;;;;5131862;27;20399;-81
2021/12/17 04:37:50;;;;;;;20.20;8.02;;;10.70;99.90;;;;;;5114508;28;20157;-81
2021/12/17 04:40:18;;;;;;;61.85;11.65;;;10.80;99.90;;;;;;5114501;28;20043;-81
2021/12/17 04:45:16;;;;;;;42.22;11.20;;;10.70;99.90;;;;;;5148615;27;20444;-81
2021/12/17 04:58:38;;;;;;;25.75;9.48;;;10.50;99.90;;;;;;5148745;27;20048;-81
2021/12/17 05:01:09;;;;;;;65.15;13.88;;;10.50;99.90;;;;;;5113808;28;20044;-81
2021/12/17 05:03:35;;;;;;;23.67;9.55;;;10.40;99.90;;;;;;5114085;27;20096;-82
2021/12/17 05:06:01;;;;;;;24.23;9.20;;;10.30;99.90;;;;;;5130656;27;20047;-82
2021/12/17 05:08:28;;;;;;;20.92;9.10;;;10.50;99.90;;;;;;5100349;27;20139;-82
2021/12/17 05:21:38;;;;;;;59.03;15.05;;;10.70;99.90;;;;;;5152676;27;20079;-82
2021/12/17 05:24:04;;;;;;;34.05;13.07;;;10.60;99.90;;;;;;5168771;27;20054;-82
2021/12/17 05:26:30;;;;;;;58.13;15.90;;;10.50;99.90;;;;;;5134113;27;20050;-81
2021/12/17 05:28:56;;;;;;;61.50;15.63;;;10.50;99.90;;;;;;5134168;27;20520;-81
2021/12/17 05:31:22;;;;;;;21.38;10.23;;;10.50;99.90;;;;;;5151432;27;20187;-82
2021/12/17 05:33:53;;;;;;;55.72;15.00;;;10.50;99.90;;;;;;5133949;27;20046;-82
2021/12/17 05:36:20;;;;;;;34.08;13.90;;;10.50;99.90;;;;;;5134194;27;20046;-82
2021/12/17 05:38:46;;;;;;;65.65;17.15;;;10.40;99.90;;;;;;5133980;27;20500;-82
2021/12/17 05:41:12;;;;;;;46.22;14.48;;;10.50;99.90;;;;;;5116836;27;20039;-82
2021/12/17 05:43:38;;;;;;;76.47;18.33;;;10.60;99.90;;;;;;5133881;27;20047;-78
2021/12/17 05:46:23;;;;;;;49.80;15.52;;;10.60;99.90;;;;;;5168697;27;20069;-81
2021/12/17 05:48:48;;;;;;;28.20;12.57;;;10.50;99.90;;;;;;5133332;27;20405;-81
2021/12/17 05:51:14;;;;;;;61.22;15.70;;;10.60;99.90;;;;;;5151026;27;20051;-82
2021/12/17 05:53:40;;;;;;;96.72;20.40;;;10.60;99.90;;;;;;5168383;27;20096;-81
2021/12/17 05:56:06;;;;;;;55.22;16.95;;;10.60;99.90;;;;;;5168315;27;20061;-81
2021/12/17 05:58:32;;;;;;;35.58;13.93;;;10.50;99.90;;;;;;5115676;27;20047;-81
2021/12/17 06:00:57;;;;;;;75.32;18.90;;;10.50;99.90;;;;;;5168120;27;20394;-81
2021/12/17 06:03:24;;;;;;;34.40;13.88;;;10.50;99.90;;;;;;5150938;27;20416;-81
2021/12/17 06:05:50;;;;;;;56.97;16.40;;;10.50;99.90;;;;;;5133160;27;20043;-81
2021/12/17 06:08:16;;;;;;;86.90;19.83;;;10.50;99.90;;;;;;5116557;27;20042;-82
2021/12/17 06:10:42;;;;;;;74.68;19.05;;;10.60;99.90;;;;;;5150744;27;20566;-81
2021/12/17 06:13:07;;;;;;;55.38;16.85;;;10.40;99.90;;;;;;5133567;27;20076;-81
2021/12/17 06:15:33;;;;;;;94.47;20.35;;;10.40;99.90;;;;;;5168024;27;20047;-81
2021/12/17 06:17:59;;;;;;;46.55;15.52;;;10.40;99.90;;;;;;5167874;27;20387;-81
2021/12/17 06:20:24;;;;;;;46.13;15.65;;;10.40;99.90;;;;;;5167799;27;20047;-81
2021/12/17 06:22:52;;;;;;;96.78;19.98;;;10.50;99.90;;;;;;5168354;27;20043;-81
2021/12/17 06:25:17;;;;;;;97.05;19.98;;;10.60;99.90;;;;;;5116221;27;20043;-81
2021/12/17 06:27:43;;;;;;;99.10;20.00;;;10.50;99.90;;;;;;5133592;27;20050;-81
2021/12/17 06:30:12;;;;;;;30.70;13.60;;;10.50;99.90;;;;;;5168072;27;20039;-81
2021/12/17 06:32:38;;;;;;;55.63;16.65;;;10.30;99.90;;;;;;5133266;27;20104;-81
2021/12/17 06:35:06;;;;;;;43.58;14.43;;;10.30;99.90;;;;;;5132906;28;20039;-81
2021/12/17 06:37:33;;;;;;;36.17;13.95;;;10.40;99.90;;;;;;5116351;28;20047;-81
2021/12/17 06:39:59;;;;;;;71.75;18.05;;;10.40;99.90;;;;;;5115870;28;20407;-81
2021/12/17 06:42:26;;;;;;;64.07;16.55;;;10.50;99.90;;;;;;5133439;27;20096;-81
2021/12/17 06:44:56;;;;;;;92.97;19.30;;;10.50;99.90;;;;;;5132946;27;20050;-81
2021/12/17 06:47:29;;;;;;;74.13;16.83;;;10.60;99.90;;;;;;5115501;28;20397;-81
2021/12/17 06:54:34;;;;;;;53.95;16.38;;;10.60;99.90;;;;;;5115897;28;20134;-81
2021/12/17 07:01:12;;;;;;;87.40;19.10;;;10.60;99.90;;;;;;5097760;28;20051;-81
2021/12/17 07:17:13;;;;;;;97.93;18.88;;;10.50;99.90;;;;;;5136796;27;20046;-81
2021/12/17 07:17:27;;;;;;;28.20;12.48;;;10.40;99.90;;;;;;5156631;27;20074;-81
2021/12/17 07:40:25;;;;;;;54.25;15.48;;;10.50;99.90;;;;;;5136201;27;20043;-77
2021/12/17 07:42:53;;;;;;;40.75;14.50;;;10.50;99.90;;;;;;5119109;27;20039;-76
2021/12/17 07:45:19;;;;;;;79.43;18.13;;;10.50;99.90;;;;;;5136411;27;20406;-76
2021/12/17 07:47:44;;;;;;;40.70;13.82;;;10.50;99.90;;;;;;5170237;27;20058;-76
2021/12/17 07:50:10;;;;;;;94.25;18.50;;;10.50;99.90;;;;;;5101993;27;20043;-77
2021/12/17 07:52:36;;;;;;;64.78;16.55;;;10.50;99.90;;;;;;5119002;27;20508;-78
2021/12/17 07:55:02;;;;;;;37.80;14.50;;;10.50;99.90;;;;;;5170359;27;20043;-77
2021/12/17 07:57:27;;;;;;;86.78;18.80;;;10.60;99.90;;;;;;5136684;27;20047;-78
2021/12/17 07:59:53;;;;;;;38.90;14.35;;;10.60;99.90;;;;;;5136113;27;20115;-78
2021/12/17 08:02:19;;;;;;;80.05;17.65;;;10.60;99.90;;;;;;5135833;27;20043;-77
2021/12/17 08:04:44;;;;;;;52.00;14.82;;;10.70;99.90;;;;;;5118331;27;20043;-78
2021/12/17 08:07:10;;;;;;;31.88;12.55;;;10.60;99.90;;;;;;5164469;27;20137;-78
2021/12/17 08:09:36;;;;;;;25.45;11.52;;;10.70;99.90;;;;;;5125779;27;20048;-77
2021/12/17 08:12:02;;;;;;;40.30;14.52;;;10.70;99.90;;;;;;5156993;27;20420;-78
2021/12/17 08:14:29;;;;;;;79.25;18.13;;;10.60;99.90;;;;;;5091161;28;20067;-77
2021/12/17 08:17:05;;;;;;;96.80;18.80;;;10.70;99.90;;;;;;5127570;27;20083;-77
2021/12/17 08:29:55;;;;;;;58.33;15.95;;;10.70;99.90;;;;;;5135050;27;20143;-77
2021/12/17 08:32:21;;;;;;;45.03;15.82;;;10.80;99.90;;;;;;5117681;27;20417;-77
2021/12/17 08:34:47;;;;;;;65.30;16.75;;;10.80;99.90;;;;;;5128266;27;20054;-77
2021/12/17 08:37:13;;;;;;;25.27;12.25;;;10.90;99.90;;;;;;5134955;27;20046;-78
2021/12/17 08:39:39;;;;;;;44.08;14.80;;;10.80;99.90;;;;;;5117654;27;20098;-77
2021/12/17 08:42:07;;;;;;;30.48;12.75;;;10.80;99.90;;;;;;5133927;27;20881;-77
2021/12/17 08:44:32;;;;;;;57.05;16.55;;;10.90;99.90;;;;;;5134622;27;20039;-78
2021/12/17 08:46:58;;;;;;;81.88;18.38;;;10.90;99.90;;;;;;5134397;27;20400;-77
2021/12/17 08:49:24;;;;;;;71.65;17.67;;;10.80;99.90;;;;;;5134355;27;20039;-77
2021/12/17 08:51:50;;;;;;;59.80;17.77;;;10.70;99.90;;;;;;5151382;27;20086;-77
2021/12/17 08:54:16;;;;;;;38.15;14.45;;;10.60;99.90;;;;;;5134778;27;20397;-78
2021/12/17 08:56:47;;;;;;;67.95;18.23;;;10.50;99.90;;;;;;5117170;27;20047;-77
2021/12/17 08:59:14;;;;;;;44.78;14.57;;;10.60;99.90;;;;;;5117533;27;20047;-77
2021/12/17 09:01:41;;;;;;;62.55;17.50;;;10.70;99.90;;;;;;5132267;27;20043;-77
2021/12/17 09:04:06;;;;;;;53.58;16.15;;;10.70;99.90;;;;;;5113893;28;20051;-77
2021/12/17 09:06:32;;;;;;;58.95;18.20;;;10.70;99.90;;;;;;5113926;28;20371;-77
2021/12/17 09:08:59;;;;;;;74.82;19.30;;;10.70;99.90;;;;;;5100061;27;20097;-76
2021/12/17 09:11:28;;;;;;;80.05;19.70;;;10.70;99.90;;;;;;5117143;27;20125;-77
2021/12/17 09:13:57;;;;;;;77.18;20.23;;;10.80;99.90;;;;;;5134096;27;20039;-77
2021/12/17 09:16:23;;;;;;;51.45;16.88;;;10.90;99.90;;;;;;5133786;27;20097;-77
2021/12/17 09:18:53;;;;;;;60.42;18.40;;;10.90;99.90;;;;;;5133630;27;20513;-77
2021/12/17 09:21:19;;;;;;;69.63;20.15;;;10.90;99.90;;;;;;5134721;27;20047;-77
2021/12/17 09:23:45;;;;;;;54.05;17.20;;;10.90;99.90;;;;;;5134127;27;20051;-77
2021/12/17 09:26:13;;;;;;;74.72;20.27;;;10.90;99.90;;;;;;5111803;27;20567;-77
2021/12/17 09:28:38;;;;;;;62.50;19.20;;;10.90;99.90;;;;;;5134109;27;20080;-77
2021/12/17 09:31:05;;;;;;;36.70;14.77;;;10.90;99.90;;;;;;5134070;27;20070;-77
2021/12/17 09:33:33;;;;;;;45.80;16.38;;;11.00;99.90;;;;;;5099864;27;20390;-77
2021/12/17 09:35:58;;;;;;;67.85;18.95;;;11.10;99.90;;;;;;5133810;27;20039;-77
2021/12/17 09:38:24;;;;;;;70.30;19.48;;;11.10;99.90;;;;;;5116685;27;20112;-77
2021/12/17 09:40:50;;;;;;;56.58;17.98;;;11.10;99.90;;;;;;5133639;27;20039;-77
2021/12/17 09:43:16;;;;;;;45.85;17.35;;;11.10;99.90;;;;;;5103709;27;20035;-77
2021/12/17 09:45:42;;;;;;;31.67;14.35;;;11.10;99.90;;;;;;5132313;27;20460;-77
2021/12/17 09:48:13;;;;;;;62.33;17.88;;;11.20;99.90;;;;;;5150260;27;20139;-77
2021/12/17 09:50:39;;;;;;;55.47;18.00;;;11.30;99.90;;;;;;5134089;27;20073;-77
2021/12/17 09:53:05;;;;;;;35.78;14.88;;;11.40;99.90;;;;;;5133703;27;20493;-77
2021/12/17 09:55:30;;;;;;;38.30;15.05;;;11.40;99.90;;;;;;5116675;27;20055;-77
2021/12/17 09:57:56;;;;;;;47.72;15.95;;;11.50;99.90;;;;;;5099339;27;20046;-77
2021/12/17 10:00:26;;;;;;;44.45;15.68;;;11.60;99.90;;;;;;5134073;27;20043;-76
2021/12/17 10:02:52;;;;;;;49.28;16.42;;;11.50;99.90;;;;;;5133680;27;20047;-76
2021/12/17 10:05:25;;;;;;;45.20;15.40;;;11.30;99.90;;;;;;5116531;27;20101;-77
2021/12/17 10:07:56;;;;;;;33.22;13.57;;;11.30;99.90;;;;;;5133909;27;20470;-77
2021/12/17 10:10:35;;;;;;;56.20;16.80;;;11.40;99.90;;;;;;5133309;27;20049;-77
2021/12/17 10:13:20;;;;;;;29.17;12.52;;;11.50;99.90;;;;;;5116498;27;20059;-77
2021/12/17 10:15:51;;;;;;;46.00;14.25;;;11.60;99.90;;;;;;5116589;27;20050;-77
2021/12/17 10:18:18;;;;;;;35.03;11.63;;;11.60;99.90;;;;;;5133207;27;20054;-77
2021/12/17 10:20:58;;;;;;;28.05;10.48;;;11.60;99.90;;;;;;5167861;27;20047;-77
2021/12/17 10:23:25;;;;;;;29.92;9.63;;;11.50;99.90;;;;;;5133459;28;20039;-76
2021/12/17 10:25:52;;;;;;;23.65;9.85;;;11.50;99.90;;;;;;5099234;28;20088;-74
2021/12/17 10:28:18;;;;;;;34.65;10.43;;;11.50;99.90;;;;;;5134375;27;20047;-74
2021/12/17 10:30:47;;;;;;;32.22;10.02;;;11.60;99.90;;;;;;5133500;27;20103;-75
2021/12/17 10:33:18;;;;;;;29.35;10.48;;;11.50;99.90;;;;;;5133163;27;20043;-73
2021/12/17 10:35:47;;;;;;;23.40;9.88;;;11.60;99.90;;;;;;5136473;28;20054;-76
2021/12/17 10:38:17;;;;;;;29.92;9.75;;;11.50;99.90;;;;;;5138717;27;20409;-73
2021/12/17 10:40:54;;;;;;;23.90;9.32;;;11.60;99.90;;;;;;5133127;27;20375;-75
2021/12/17 10:46:25;;;;;;;23.13;9.70;;;11.60;99.90;;;;;;5131882;27;20490;-76
2021/12/17 10:49:35;;;;;;;29.95;10.55;;;11.50;99.90;;;;;;5120144;27;20460;-76
2021/12/17 10:51:46;;;;;;;27.52;10.48;;;11.40;99.90;;;;;;5116528;27;20051;-76
2021/12/17 10:54:21;;;;;;;21.60;9.45;;;11.40;99.90;;;;;;5136215;27;20050;-76
2021/12/17 10:56:52;;;;;;;34.28;12.05;;;11.40;99.90;;;;;;5137161;27;20058;-74
2021/12/17 10:59:21;;;;;;;40.45;13.65;;;11.60;99.90;;;;;;5137248;27;20043;-74
2021/12/17 11:01:51;;;;;;;48.33;14.93;;;11.60;99.90;;;;;;5120301;27;20440;-74
2021/12/17 11:04:30;;;;;;;41.83;14.65;;;11.60;99.90;;;;;;5119643;27;20134;-73
2021/12/17 11:07:08;;;;;;;55.08;16.15;;;11.40;99.90;;;;;;5107331;28;20055;-74
2021/12/17 11:09:40;;;;;;;42.20;14.02;;;11.30;99.90;;;;;;5131686;27;20111;-74
2021/12/17 11:12:26;;;;;;;28.33;12.68;;;11.30;99.90;;;;;;5121501;27;20398;-74
2021/12/17 11:14:52;;;;;;;46.65;14.38;;;11.40;99.90;;;;;;5116040;28;20055;-75
2021/12/17 11:17:21;;;;;;;33.58;13.43;;;11.50;99.90;;;;;;5098243;28;20055;-74
2021/12/17 11:19:50;;;;;;;54.90;16.13;;;11.50;99.90;;;;;;5130523;27;20139;-75
2021/12/17 11:22:17;;;;;;;41.10;13.65;;;11.60;99.90;;;;;;5131991;27;20039;-81
2021/12/17 11:24:43;;;;;;;29.90;12.25;;;11.60;99.90;;;;;;5136003;27;20135;-76
2021/12/17 11:27:09;;;;;;;20.58;9.85;;;11.60;99.90;;;;;;5137063;27;20143;-76
2021/12/17 11:29:35;;;;;;;22.15;9.43;;;11.60;99.90;;;;;;5136475;27;20084;-76
2021/12/17 11:32:03;;;;;;;26.00;10.25;;;11.50;99.90;;;;;;5136603;27;20054;-76
2021/12/17 11:34:32;;;;;;;21.30;9.70;;;11.60;99.90;;;;;;5136560;27;20123;-75
2021/12/17 11:37:00;;;;;;;23.17;9.93;;;11.60;99.90;;;;;;5136612;27;20090;-75
2021/12/17 11:39:33;;;;;;;22.52;8.95;;;11.60;99.90;;;;;;5118979;27;20047;-76
2021/12/17 11:42:04;;;;;;;12.40;6.80;;;11.60;99.90;;;;;;5136226;27;20047;-75
2021/12/17 11:44:40;;;;;;;23.58;9.48;;;11.50;99.90;;;;;;5136220;27;20047;-76
2021/12/17 11:47:10;;;;;;;17.45;8.18;;;11.40;99.90;;;;;;5119049;27;20053;-75
2021/12/17 11:49:54;;;;;;;23.38;9.95;;;11.20;99.90;;;;;;5135829;27;20058;-76
2021/12/17 11:52:35;;;;;;;18.73;8.95;;;11.30;99.90;;;;;;5136318;27;20039;-78
2021/12/17 11:55:25;;;;;;;23.83;9.57;;;11.30;99.90;;;;;;5135900;27;20448;-74
2021/12/17 11:57:56;;;;;;;18.30;7.75;;;11.40;99.90;;;;;;5127840;27;20149;-86
2021/12/17 12:00:44;;;;;;;14.32;7.30;;;11.30;99.90;;;;;;5118770;27;20100;-80
2021/12/17 12:03:16;;;;;;;18.70;8.48;;;11.30;99.90;;;;;;5104323;27;20062;-76
2021/12/17 12:05:44;;;;;;;15.27;7.30;;;11.30;99.90;;;;;;5135556;27;20130;-75
2021/12/17 12:08:45;;;;;;;14.00;6.70;;;11.30;99.90;;;;;;5136234;27;20379;-74
2021/12/17 12:11:22;;;;;;;12.38;6.07;;;11.40;99.90;;;;;;5135660;27;20215;-75
2021/12/17 12:13:50;;;;;;;10.18;4.95;;;11.50;99.90;;;;;;5136034;27;20082;-74
2021/12/17 12:16:21;;;;;;;8.93;4.95;;;11.50;99.90;;;;;;5135920;27;20055;-74
2021/12/17 12:18:51;;;;;;;8.68;5.65;;;11.60;99.90;;;;;;5135854;27;20115;-75
2021/12/17 12:21:19;;;;;;;10.73;5.40;;;11.70;99.90;;;;;;5135546;27;20051;-75
2021/12/17 12:23:54;;;;;;;11.10;5.05;;;11.80;99.90;;;;;;5135497;27;20516;-74
2021/12/17 12:26:40;;;;;;;12.30;5.75;;;11.90;99.90;;;;;;5135607;27;20039;-73
2021/12/17 12:29:34;;;;;;;9.10;4.95;;;11.80;99.90;;;;;;5135578;27;20043;-73
2021/12/17 12:32:26;;;;;;;11.45;5.15;;;11.90;99.90;;;;;;5132250;27;20078;-73
2021/12/17 12:35:08;;;;;;;9.88;4.85;;;11.80;99.90;;;;;;5131820;27;20062;-74
2021/12/17 12:37:34;;;;;;;11.45;5.53;;;11.80;99.90;;;;;;5135187;27;20043;-74
2021/12/17 12:40:01;;;;;;;10.93;5.00;;;11.90;99.90;;;;;;5139092;27;20049;-75
2021/12/17 12:42:38;;;;;;;9.82;5.18;;;11.90;99.90;;;;;;5137512;27;20043;-76
2021/12/17 12:45:07;;;;;;;12.02;5.63;;;11.90;99.90;;;;;;5135119;27;20141;-79
2021/12/17 12:47:41;;;;;;;12.40;6.07;;;11.90;99.90;;;;;;5134370;27;20478;-73
2021/12/17 12:50:16;;;;;;;11.25;4.95;;;11.90;99.90;;;;;;5136120;27;20055;-73
2021/12/17 12:53:05;;;;;;;9.63;5.18;;;11.80;99.90;;;;;;5135154;27;20490;-73
2021/12/17 12:55:45;;;;;;;7.25;4.63;;;11.80;99.90;;;;;;5135951;27;20069;-73
2021/12/17 12:58:27;;;;;;;12.65;6.43;;;11.80;99.90;;;;;;5117741;27;20126;-72
2021/12/17 13:00:56;;;;;;;14.18;6.22;;;11.80;99.90;;;;;;5135100;27;20046;-72
2021/12/17 13:03:31;;;;;;;12.18;6.35;;;11.80;99.90;;;;;;5134491;27;20058;-73
2021/12/17 13:06:02;;;;;;;14.38;6.45;;;11.70;99.90;;;;;;5135738;27;20489;-72
2021/12/17 13:08:31;;;;;;;12.05;7.38;;;11.70;99.90;;;;;;5135214;27;20047;-72
2021/12/17 13:11:00;;;;;;;10.05;5.70;;;11.70;99.90;;;;;;5134496;27;20474;-73
2021/12/17 13:13:34;;;;;;;8.35;5.03;;;11.70;99.90;;;;;;5134923;27;20047;-72
2021/12/17 13:16:08;;;;;;;11.35;6.57;;;11.60;99.90;;;;;;5135277;27;20482;-72
2021/12/17 13:24:08;;;;;;;10.25;6.88;;;11.80;99.90;;;;;;5135494;27;20058;-73
2021/12/17 13:26:36;;;;;;;10.25;6.28;;;11.80;99.90;;;;;;5135384;27;20042;-72
2021/12/17 13:29:06;;;;;;;14.35;7.72;;;11.80;99.90;;;;;;5134302;27;20057;-74
2021/12/17 13:31:43;;;;;;;11.75;7.13;;;11.90;99.90;;;;;;5135679;27;20051;-73
2021/12/17 13:34:22;;;;;;;11.65;6.57;;;11.80;99.90;;;;;;5134319;27;20042;-73
2021/12/17 13:36:54;;;;;;;9.40;5.32;;;11.80;99.90;;;;;;5133725;27;20387;-73
2021/12/17 13:39:21;;;;;;;9.57;5.38;;;11.60;99.90;;;;;;5134014;27;20152;-73
2021/12/17 13:41:48;;;;;;;7.57;4.45;;;11.40;99.90;;;;;;5134826;27;20043;-73
2021/12/17 13:44:39;;;;;;;8.85;5.38;;;11.40;99.90;;;;;;5134940;27;20043;-73
2021/12/17 13:47:16;;;;;;;10.88;5.70;;;11.50;99.90;;;;;;5116647;27;20067;-73
2021/12/17 13:49:48;;;;;;;8.88;6.00;;;11.40;99.90;;;;;;5133607;27;20107;-74
2021/12/17 13:52:16;;;;;;;11.18;5.97;;;11.60;99.90;;;;;;5134953;27;20111;-78
2021/12/17 13:54:45;;;;;;;10.38;5.95;;;11.60;99.90;;;;;;5134167;27;20055;-74
2021/12/17 13:57:14;;;;;;;11.82;6.15;;;11.70;99.90;;;;;;5134831;27;20051;-76
2021/12/17 13:59:41;;;;;;;10.23;6.68;;;11.80;99.90;;;;;;5099971;27;20043;-74
2021/12/17 14:02:21;;;;;;;12.32;6.50;;;11.70;99.90;;;;;;5133763;27;20046;-74
2021/12/17 14:05:09;;;;;;;9.60;5.85;;;11.60;99.90;;;;;;5116340;27;20497;-73
2021/12/17 14:07:37;;;;;;;8.85;5.70;;;11.40;99.90;;;;;;5134987;27;20055;-75
2021/12/17 14:10:10;;;;;;;6.82;4.63;;;11.30;99.90;;;;;;5133479;27;20082;-75
2021/12/17 14:12:39;;;;;;;9.50;5.45;;;11.40;99.90;;;;;;5116490;27;20424;-73
2021/12/17 14:15:26;;;;;;;7.95;5.05;;;11.50;99.90;;;;;;5116542;27;20430;-73
2021/12/17 14:18:04;;;;;;;8.40;5.03;;;11.50;99.90;;;;;;5133055;27;20093;-74
2021/12/17 14:20:39;;;;;;;8.82;4.80;;;11.50;99.90;;;;;;5132874;27;20096;-74
2021/12/17 14:23:08;;;;;;;8.85;5.38;;;11.60;99.90;;;;;;5133654;28;20051;-74
2021/12/17 14:25:39;;;;;;;7.40;5.03;;;11.80;99.90;;;;;;5133118;28;20047;-74
2021/12/17 14:28:13;;;;;;;7.88;4.63;;;11.90;99.90;;;;;;5133595;28;20078;-73
2021/12/17 14:30:42;;;;;;;6.88;4.82;;;11.90;99.90;;;;;;5116267;28;20055;-74
2021/12/17 14:33:17;;;;;;;7.65;4.70;;;12.00;99.90;;;;;;5134271;27;20122;-73
2021/12/17 14:35:50;;;;;;;8.13;5.22;;;12.00;99.90;;;;;;5133494;28;20051;-73
2021/12/17 14:38:19;;;;;;;9.98;5.22;;;12.00;99.90;;;;;;5116681;28;20051;-73
2021/12/17 14:40:58;;;;;;;14.18;6.88;;;12.00;99.90;;;;;;5133110;28;20047;-73
2021/12/17 14:43:38;;;;;;;11.77;6.97;;;12.00;99.90;;;;;;5133314;28;20090;-74
2021/12/17 15:04:45;;;;;;;13.05;7.05;;;11.80;99.90;;;;;;5132955;28;20051;-72
2021/12/17 15:07:11;;;;;;;10.65;6.45;;;11.90;99.90;;;;;;5134176;27;20073;-72
2021/12/17 15:09:42;;;;;;;13.90;7.25;;;11.90;99.90;;;;;;5133332;27;20043;-72
2021/12/17 15:14:55;;;;;;;15.30;7.68;;;11.90;99.90;;;;;;5132887;28;20455;-74
2021/12/17 15:17:20;;;;;;;20.45;8.73;;;11.90;99.90;;;;;;5132987;28;20047;-74
2021/12/17 15:19:47;;;;;;;11.50;7.00;;;11.90;99.90;;;;;;5115574;28;20051;-75
2021/12/17 15:22:13;;;;;;;14.65;8.13;;;11.80;99.90;;;;;;5132733;28;20047;-73
2021/12/17 15:24:39;;;;;;;18.08;10.52;;;11.80;99.90;;;;;;5132703;28;20057;-73
2021/12/17 15:27:05;;;;;;;22.35;11.90;;;11.80;99.90;;;;;;5115816;28;20086;-72
2021/12/17 15:29:31;;;;;;;24.48;11.95;;;11.70;99.90;;;;;;5132586;28;20070;-73
2021/12/17 15:31:57;;;;;;;22.02;11.85;;;11.70;99.90;;;;;;5117971;27;20486;-74
2021/12/17 15:34:23;;;;;;;19.38;10.50;;;11.70;99.90;;;;;;5136572;27;20039;-73
2021/12/17 15:36:50;;;;;;;18.13;10.63;;;11.70;99.90;;;;;;5171385;27;20477;-73
2021/12/17 15:39:15;;;;;;;20.08;10.93;;;11.70;99.90;;;;;;5102380;27;20099;-73
2021/12/17 15:41:42;;;;;;;19.25;10.05;;;11.60;99.90;;;;;;5171180;27;20425;-73
2021/12/17 15:44:09;;;;;;;18.77;9.57;;;11.60;99.90;;;;;;5136127;27;20106;-73
2021/12/17 15:46:36;;;;;;;25.80;9.60;;;11.60;99.90;;;;;;5136119;27;20047;-73
2021/12/17 15:49:03;;;;;;;15.48;9.18;;;11.40;99.90;;;;;;5118285;27;20062;-75
2021/12/17 15:51:29;;;;;;;18.33;9.13;;;11.20;99.90;;;;;;5136311;27;20121;-79
2021/12/17 15:53:55;;;;;;;18.90;9.15;;;11.20;99.90;;;;;;5136091;27;20054;-78
2021/12/17 15:56:21;;;;;;;19.13;8.20;;;11.20;99.90;;;;;;5119006;27;20542;-78
2021/12/17 15:58:48;;;;;;;17.65;8.30;;;11.10;99.90;;;;;;5135975;27;20108;-77
2021/12/17 16:01:13;;;;;;;22.13;11.02;;;11.20;99.90;;;;;;5136013;27;20139;-77
2021/12/17 16:03:42;;;;;;;20.35;10.57;;;11.30;99.90;;;;;;5170488;27;20101;-78
2021/12/17 16:06:08;;;;;;;21.42;11.63;;;11.30;99.90;;;;;;5152922;27;20079;-76
2021/12/17 16:08:40;;;;;;;32.08;12.75;;;11.30;99.90;;;;;;5118839;27;20051;-76